createdAt,value
2022-11-16T00:02:29.912Z,96944.56
2022-11-16T00:05:35.770Z,96956.91
2022-11-16T00:08:42.176Z,96947.41
2022-11-16T00:11:45.740Z,96923.56
2022-11-16T00:14:48.905Z,96899.81
2022-11-16T00:17:52.307Z,96938.09
2022-11-16T00:20:55.732Z,96930.09
2022-11-16T00:24:00.223Z,96928.53
2022-11-16T00:27:03.400Z,96917.19
2022-11-16T00:30:07.577Z,96932.75
2022-11-16T00:33:15.607Z,96928.78
2022-11-16T00:36:18.871Z,96924.84
2022-11-16T00:39:25.452Z,96908.19
2022-11-16T00:42:28.604Z,96926.84
2022-11-16T00:45:31.941Z,96927.06
2022-11-16T00:48:35.604Z,96921.91
2022-11-16T00:51:39.441Z,96899.72
2022-11-16T00:54:44.870Z,96911.09
2022-11-16T00:57:48.136Z,96921.72
2022-11-16T01:00:52.477Z,96907.75
2022-11-16T01:03:56.468Z,96907.75
2022-11-16T01:06:59.948Z,96899.00
2022-11-16T01:10:05.160Z,96906.75
2022-11-16T01:13:08.738Z,96910.53
2022-11-16T01:16:14.517Z,96917.63
2022-11-16T01:19:17.680Z,96908.28
2022-11-16T01:22:21.314Z,96913.97
2022-11-16T01:25:26.087Z,96883.25
2022-11-16T01:28:32.795Z,96916.69
2022-11-16T01:31:36.724Z,96914.09
2022-11-16T01:34:41.102Z,96911.16
2022-11-16T01:37:58.572Z,96912.03
2022-11-16T01:41:04.375Z,96914.28
2022-11-16T01:44:46.562Z,96911.38
2022-11-16T01:47:57.908Z,96909.84
2022-11-16T01:51:05.943Z,96906.28
2022-11-16T01:54:13.403Z,96894.41
2022-11-16T01:57:32.611Z,96892.28
2022-11-16T02:00:41.709Z,96900.63
2022-11-16T02:04:02.757Z,96898.97
2022-11-16T02:07:19.416Z,96896.50
2022-11-16T02:10:36.109Z,96900.00
2022-11-16T02:13:52.520Z,96902.22
2022-11-16T02:17:02.683Z,96898.91
2022-11-16T02:20:30.968Z,96893.13
2022-11-16T02:24:22.697Z,96899.94
2022-11-16T02:28:05.372Z,96896.63
2022-11-16T02:31:16.965Z,96902.31
2022-11-16T02:34:22.230Z,96899.28
2022-11-16T02:37:28.374Z,96891.66
2022-11-16T02:40:34.646Z,96879.97
2022-11-16T02:43:42.596Z,96776.66
2022-11-16T02:46:51.135Z,96788.06
2022-11-16T02:49:59.988Z,96888.09
2022-11-16T02:53:04.991Z,96880.97
2022-11-16T02:56:14.239Z,96861.25
2022-11-16T02:59:18.414Z,96889.03
2022-11-16T03:02:31.200Z,96879.00
2022-11-16T03:05:42.121Z,96885.03
2022-11-16T03:08:51.467Z,96881.25
2022-11-16T03:11:59.376Z,96895.72
2022-11-16T03:15:06.961Z,96917.00
2022-11-16T03:18:16.440Z,96910.34
2022-11-16T03:21:31.405Z,96913.69
2022-11-16T03:24:34.659Z,96910.34
2022-11-16T03:27:40.467Z,96890.38
2022-11-16T03:30:48.770Z,96898.13
2022-11-16T03:33:56.967Z,96899.41
2022-11-16T03:37:01.675Z,96923.38
2022-11-16T03:40:07.215Z,96903.56
2022-11-16T03:43:11.802Z,96925.78
2022-11-16T03:46:17.422Z,96923.06
2022-11-16T03:49:24.019Z,96937.59
2022-11-16T03:52:29.733Z,96939.41
2022-11-16T03:55:36.257Z,96930.28
2022-11-16T03:58:39.915Z,96920.41
2022-11-16T04:01:44.859Z,96933.44
2022-11-16T04:05:08.873Z,96939.16
2022-11-16T04:08:33.605Z,96929.53
2022-11-16T04:11:55.501Z,96931.66
2022-11-16T04:15:21.841Z,96937.06
2022-11-16T04:18:42.579Z,96934.97
2022-11-16T04:22:08.354Z,96936.44
2022-11-16T04:25:17.102Z,96933.44
2022-11-16T04:28:25.514Z,96933.50
2022-11-16T04:35:43.549Z,96804.84
2022-11-16T04:38:57.285Z,96924.63
2022-11-16T04:42:19.947Z,96898.56
2022-11-16T04:45:50.145Z,96904.19
2022-11-16T04:48:56.803Z,96727.91
2022-11-16T04:52:28.136Z,96779.03
2022-11-16T04:55:37.826Z,96694.63
2022-11-16T04:58:46.373Z,96902.75
2022-11-16T05:02:07.269Z,96915.81
2022-11-16T05:05:16.464Z,96915.94
2022-11-16T05:08:27.532Z,96823.78
2022-11-16T05:11:39.893Z,96741.81
2022-11-16T05:14:45.804Z,96801.91
2022-11-16T05:17:55.002Z,96859.41
2022-11-16T05:21:04.308Z,96898.31
2022-11-16T05:24:32.971Z,96771.25
2022-11-16T05:27:41.695Z,96766.81
2022-11-16T05:30:48.266Z,96753.06
2022-11-16T05:33:59.456Z,96825.72
2022-11-16T05:37:04.636Z,96894.69
2022-11-16T05:40:19.649Z,96890.38
2022-11-16T05:47:05.561Z,96890.59
2022-11-16T05:50:15.945Z,96879.97
2022-11-16T05:53:24.737Z,96832.19
2022-11-16T05:57:01.840Z,96887.56
2022-11-16T06:00:20.456Z,96837.03
2022-11-16T06:03:36.446Z,96828.16
2022-11-16T06:06:48.526Z,96883.59
2022-11-16T06:09:53.794Z,96867.75
2022-11-16T06:12:59.754Z,96839.75
2022-11-16T06:16:05.642Z,96769.59
2022-11-16T06:19:11.218Z,96879.84
2022-11-16T06:22:15.268Z,96859.13
2022-11-16T06:25:23.413Z,96665.84
2022-11-16T06:28:32.780Z,96764.31
2022-11-16T06:31:36.987Z,96879.69
2022-11-16T06:34:40.657Z,96839.50
2022-11-16T06:37:45.777Z,96878.72
2022-11-16T06:40:51.954Z,96765.22
2022-11-16T06:43:57.070Z,96875.16
2022-11-16T06:47:07.427Z,96877.63
2022-11-16T07:18:26.557Z,96882.69
2022-11-16T07:21:31.688Z,96891.63
2022-11-16T07:24:37.930Z,96890.31
2022-11-16T07:27:41.602Z,96899.25
2022-11-16T07:30:48.220Z,96906.75
2022-11-16T07:33:58.902Z,96924.28
2022-11-16T07:37:25.532Z,96949.16
2022-11-16T07:40:28.849Z,96950.81
2022-11-16T07:43:35.031Z,96949.00
2022-11-16T07:46:48.364Z,96954.56
2022-11-16T07:49:54.312Z,96947.84
2022-11-16T07:53:00.850Z,96951.78
2022-11-16T07:56:04.820Z,96943.44
2022-11-16T07:59:10.232Z,96953.31
2022-11-16T08:02:17.897Z,96916.34
2022-11-16T08:05:22.837Z,96944.41
2022-11-16T08:08:27.442Z,96927.38
2022-11-16T08:11:31.652Z,96948.66
2022-11-16T08:14:34.782Z,96943.88
2022-11-16T08:17:39.191Z,96947.88
2022-11-16T08:20:45.676Z,96950.09
2022-11-16T08:23:50.673Z,96950.66
2022-11-16T08:26:58.761Z,96931.34
2022-11-16T08:30:03.131Z,96956.06
2022-11-16T08:33:08.108Z,96957.75
2022-11-16T08:36:17.278Z,96950.66
2022-11-16T08:39:22.073Z,96941.56
2022-11-16T08:42:25.849Z,96943.97
2022-11-16T08:45:30.057Z,96937.88
2022-11-16T08:48:33.918Z,96942.72
2022-11-16T08:51:38.551Z,96941.13
2022-11-16T08:54:42.514Z,96938.53
2022-11-16T08:57:46.658Z,96935.50
2022-11-16T09:00:53.762Z,96946.09
2022-11-16T09:03:57.622Z,96946.34
2022-11-16T09:07:02.181Z,96946.84
2022-11-16T09:10:08.506Z,96945.91
2022-11-16T09:13:11.832Z,96943.09
2022-11-16T09:16:16.689Z,96945.59
2022-11-16T09:19:20.938Z,96945.44
2022-11-16T09:22:25.708Z,96950.47
2022-11-16T09:25:28.861Z,96942.66
2022-11-16T09:28:32.830Z,96945.06
2022-11-16T09:31:37.397Z,96950.81
2022-11-16T09:34:40.596Z,96948.78
2022-11-16T09:37:45.206Z,96950.66
2022-11-16T09:40:48.963Z,96943.00
2022-11-16T09:43:59.990Z,96960.03
2022-11-16T09:47:03.673Z,96954.88
2022-11-16T09:50:08.738Z,96969.06
2022-11-16T09:53:34.789Z,96964.56
2022-11-16T09:56:41.373Z,96969.59
2022-11-16T09:59:48.930Z,96969.53
2022-11-16T10:03:02.744Z,96955.97
2022-11-16T10:06:09.339Z,96962.25
2022-11-16T10:09:14.858Z,96949.84
2022-11-16T10:12:24.103Z,96956.94
2022-11-16T10:15:42.902Z,96953.63
2022-11-16T10:18:55.035Z,96931.88
2022-11-16T10:22:09.931Z,96957.69
2022-11-16T10:25:17.633Z,96935.44
2022-11-16T10:28:52.762Z,96951.84
2022-11-16T10:35:17.041Z,96950.78
2022-11-16T10:38:23.387Z,96955.94
2022-11-16T10:41:32.741Z,96944.09
2022-11-16T10:44:41.354Z,96949.81
2022-11-16T10:47:50.252Z,96943.28
2022-11-16T10:50:55.609Z,96944.53
2022-11-16T10:53:58.911Z,96936.06
2022-11-16T10:57:06.004Z,96941.00
2022-11-16T11:00:15.209Z,96941.97
2022-11-16T11:03:32.305Z,96936.66
2022-11-16T11:06:40.280Z,96913.34
2022-11-16T11:09:43.480Z,96904.31
2022-11-16T11:13:03.071Z,96917.81
2022-11-16T11:16:16.356Z,96912.22
2022-11-16T11:19:25.033Z,96933.25
2022-11-16T11:22:30.745Z,96925.53
2022-11-16T11:25:36.918Z,96919.22
2022-11-16T11:28:48.754Z,96921.34
2022-11-16T11:31:55.479Z,96891.66
2022-11-16T11:35:00.070Z,96880.94
2022-11-16T11:38:08.162Z,96909.84
2022-11-16T11:41:19.968Z,96912.84
2022-11-16T11:44:37.032Z,96906.34
2022-11-16T11:47:59.032Z,96904.41
2022-11-16T11:51:05.687Z,96892.72
2022-11-16T11:54:19.114Z,96905.94
2022-11-16T11:57:24.894Z,96902.72
2022-11-16T12:00:28.325Z,96883.06
2022-11-16T12:03:44.738Z,96902.28
2022-11-16T12:06:57.722Z,96883.34
2022-11-16T12:10:14.029Z,96899.22
2022-11-16T12:13:36.293Z,96887.31
2022-11-16T12:16:49.182Z,96873.66
2022-11-16T12:20:09.082Z,96882.31
2022-11-16T12:23:36.501Z,96883.50
2022-11-16T12:26:54.108Z,96856.91
2022-11-16T12:30:03.656Z,96868.44
2022-11-16T12:33:22.543Z,96866.28
2022-11-16T12:36:35.292Z,96876.38
2022-11-16T12:39:44.480Z,96872.75
2022-11-16T12:42:54.855Z,96859.25
2022-11-16T12:46:11.610Z,96867.00
2022-11-16T12:49:32.707Z,96864.09
2022-11-16T12:52:54.423Z,96870.31
2022-11-16T12:56:04.587Z,96862.97
2022-11-16T12:59:31.940Z,96857.13
2022-11-16T13:02:54.588Z,96869.22
2022-11-16T13:06:03.165Z,96873.88
2022-11-16T13:09:13.665Z,96879.53
2022-11-16T13:12:19.247Z,96874.47
2022-11-16T13:15:35.632Z,96871.91
2022-11-16T13:18:44.044Z,96861.66
2022-11-16T13:21:54.724Z,96866.06
2022-11-16T13:25:04.446Z,96865.38
2022-11-16T13:28:17.882Z,96854.19
2022-11-16T13:31:31.483Z,96845.44
2022-11-16T13:34:39.054Z,96819.63
2022-11-16T13:37:43.882Z,96838.66
2022-11-16T13:40:47.271Z,96821.47
2022-11-16T13:43:51.081Z,96838.66
2022-11-16T13:46:59.654Z,96837.13
2022-11-16T13:50:04.238Z,96830.81
2022-11-16T13:54:04.079Z,96839.28
2022-11-16T13:56:49.259Z,96848.66
2022-11-16T14:00:09.765Z,96816.31
2022-11-16T14:03:38.490Z,96830.31
2022-11-16T14:06:59.277Z,96833.50
2022-11-16T14:10:05.567Z,96828.81
2022-11-16T14:13:39.079Z,96833.28
2022-11-16T14:16:58.047Z,96843.00
2022-11-16T14:20:02.709Z,96836.75
2022-11-16T14:23:17.344Z,96827.72
2022-11-16T14:26:24.683Z,96832.81
2022-11-16T14:29:53.512Z,96827.53
2022-11-16T14:32:58.366Z,96838.13
2022-11-16T14:36:05.511Z,96831.13
2022-11-16T14:39:35.280Z,96832.78
2022-11-16T14:43:14.910Z,96830.72
2022-11-16T14:46:21.316Z,96828.75
2022-11-16T14:49:26.999Z,96834.09
2022-11-16T14:52:47.464Z,96832.91
2022-11-16T14:55:50.657Z,96829.09
2022-11-16T14:58:56.563Z,96822.53
2022-11-16T15:02:03.703Z,96819.22
2022-11-16T15:05:08.147Z,96808.09
2022-11-16T15:08:20.054Z,96816.34
2022-11-16T15:11:48.148Z,96817.63
2022-11-16T15:14:53.730Z,96805.38
2022-11-16T15:18:07.890Z,96819.31
2022-11-16T15:21:22.523Z,96823.75
2022-11-16T15:24:31.569Z,96796.13
2022-11-16T15:27:38.606Z,96824.94
2022-11-16T15:30:42.383Z,96826.28
2022-11-16T15:33:47.082Z,96823.56
2022-11-16T15:36:50.288Z,96828.69
2022-11-16T15:39:56.410Z,96829.34
2022-11-16T15:43:01.122Z,96821.72
2022-11-16T15:46:05.678Z,96829.38
2022-11-16T15:49:20.710Z,96830.88
2022-11-16T15:52:47.404Z,96822.03
2022-11-16T15:55:52.114Z,96832.81
2022-11-16T15:58:57.157Z,96825.22
2022-11-16T16:02:00.489Z,96831.03
2022-11-16T16:05:03.660Z,96825.50
2022-11-16T16:08:26.535Z,96811.44
2022-11-16T16:11:31.129Z,96812.84
2022-11-16T16:14:34.875Z,96810.72
2022-11-16T16:17:52.713Z,96794.44
2022-11-16T16:20:59.561Z,96807.44
2022-11-16T16:24:03.775Z,96805.59
2022-11-16T16:27:13.599Z,96821.88
2022-11-16T16:30:18.408Z,96820.31
2022-11-16T16:35:17.738Z,96814.66
2022-11-16T16:38:25.010Z,96777.63
2022-11-16T16:41:35.003Z,96804.00
2022-11-16T16:44:38.992Z,96814.09
2022-11-16T16:47:42.150Z,96795.88
2022-11-16T16:50:46.785Z,96806.50
2022-11-16T16:53:49.931Z,96803.84
2022-11-16T16:56:53.397Z,96798.50
2022-11-16T16:59:58.098Z,96795.78
2022-11-16T17:03:01.284Z,96793.13
2022-11-16T17:06:06.219Z,96812.00
2022-11-16T17:09:12.019Z,96811.69
2022-11-16T17:12:15.214Z,96805.69
2022-11-16T17:15:19.621Z,96797.91
2022-11-16T17:18:23.339Z,96796.38
2022-11-16T17:21:28.059Z,96804.56
2022-11-16T17:24:31.303Z,96807.28
2022-11-16T17:27:34.740Z,96801.97
2022-11-16T17:30:38.125Z,96774.50
2022-11-16T17:33:43.830Z,96790.16
2022-11-16T17:36:48.756Z,96787.91
2022-11-16T17:39:51.881Z,96788.50
2022-11-16T17:43:10.256Z,96775.63
2022-11-16T17:46:49.315Z,96777.69
2022-11-16T17:49:59.726Z,96757.63
2022-11-16T17:53:04.742Z,96772.44
2022-11-16T17:56:08.635Z,96768.59
2022-11-16T17:59:11.894Z,96751.09
2022-11-16T18:02:15.137Z,96742.22
2022-11-16T18:05:18.344Z,96773.06
2022-11-16T18:08:22.901Z,96764.09
2022-11-16T18:11:27.689Z,96760.63
2022-11-16T18:14:30.883Z,96755.31
2022-11-16T18:17:35.347Z,96760.00
2022-11-16T18:20:38.947Z,96766.00
2022-11-16T18:23:43.909Z,96750.53
2022-11-16T18:26:47.172Z,96749.19
2022-11-16T18:29:50.517Z,96739.78
2022-11-16T18:32:54.108Z,96750.47
2022-11-16T18:35:57.672Z,96734.72
2022-11-16T18:39:02.350Z,96737.09
2022-11-16T18:42:05.839Z,96738.28
2022-11-16T18:45:09.990Z,96722.84
2022-11-16T18:48:13.253Z,96739.16
2022-11-16T18:51:17.381Z,96721.13
2022-11-16T18:54:21.954Z,96713.09
2022-11-16T18:57:25.144Z,96718.53
2022-11-16T19:00:28.328Z,96719.41
2022-11-16T19:03:32.607Z,96705.97
2022-11-16T19:06:35.931Z,96711.75
2022-11-16T19:09:40.443Z,96723.31
2022-11-16T19:12:43.995Z,96724.50
2022-11-16T19:15:47.218Z,96699.13
2022-11-16T19:18:50.597Z,96730.41
2022-11-16T19:21:56.088Z,96720.94
2022-11-16T19:25:05.822Z,96670.22
2022-11-16T19:28:09.467Z,96716.16
2022-11-16T19:31:14.818Z,96714.00
2022-11-16T19:34:17.950Z,96710.47
2022-11-16T19:37:21.051Z,96707.91
2022-11-16T19:40:25.612Z,96706.22
2022-11-16T19:43:29.080Z,96702.72
2022-11-16T19:46:33.787Z,96698.22
2022-11-16T19:49:37.283Z,96703.66
2022-11-16T19:52:40.405Z,96703.28
2022-11-16T19:56:02.146Z,96694.16
2022-11-16T19:59:05.384Z,96686.28
2022-11-16T20:02:09.994Z,96687.13
2022-11-16T20:05:13.383Z,96691.34
2022-11-16T20:08:16.896Z,96685.13
2022-11-16T20:11:23.003Z,96699.03
2022-11-16T20:14:26.491Z,96694.38
2022-11-16T20:17:29.739Z,96694.16
2022-11-16T20:20:33.232Z,96696.09
2022-11-16T20:23:45.524Z,96693.63
2022-11-16T20:26:53.557Z,96686.56
2022-11-16T20:29:56.778Z,96678.41
2022-11-16T20:33:00.281Z,96686.28
2022-11-16T20:36:10.408Z,96674.78
2022-11-16T20:39:16.595Z,96685.63
2022-11-16T20:42:27.872Z,96688.09
2022-11-16T20:45:36.047Z,96698.22
2022-11-16T20:48:43.465Z,96695.22
2022-11-16T20:51:48.347Z,96683.63
2022-11-16T20:54:53.891Z,96685.81
2022-11-16T20:58:01.337Z,96685.66
2022-11-16T21:01:06.581Z,96683.28
2022-11-16T21:04:14.193Z,96687.47
2022-11-16T21:07:24.232Z,96679.47
2022-11-16T21:10:36.346Z,96672.53
2022-11-16T21:14:00.302Z,96644.16
2022-11-16T21:17:03.826Z,96679.63
2022-11-16T21:23:33.226Z,96686.19
2022-11-16T21:26:39.979Z,96690.44
2022-11-16T21:29:48.708Z,96682.16
2022-11-16T21:32:52.410Z,96702.91
2022-11-16T21:35:56.728Z,96692.00
2022-11-16T21:39:00.315Z,96700.34
2022-11-16T21:42:03.957Z,96694.84
2022-11-16T21:45:20.141Z,96692.38
2022-11-16T21:48:33.582Z,96682.00
2022-11-16T21:51:45.291Z,96669.94
2022-11-16T21:54:54.124Z,96656.75
2022-11-16T21:58:04.481Z,96645.19
2022-11-16T22:01:57.032Z,96638.16
2022-11-16T22:05:28.375Z,96647.75
2022-11-16T22:08:42.155Z,96645.69
2022-11-16T22:11:51.411Z,96612.03
2022-11-16T22:14:58.789Z,96639.56
2022-11-16T22:18:16.118Z,96639.47
2022-11-16T22:21:24.376Z,96636.13
2022-11-16T22:24:32.614Z,96637.97
2022-11-16T22:28:13.883Z,96629.88
2022-11-16T22:35:15.406Z,96634.88
2022-11-16T22:38:45.129Z,96623.50
2022-11-16T22:41:51.726Z,96624.09
2022-11-16T22:45:06.526Z,96616.00
2022-11-16T22:48:21.518Z,96626.41
2022-11-16T22:51:35.692Z,96613.44
2022-11-16T22:54:58.948Z,96613.16
2022-11-16T22:58:05.717Z,96609.22
2022-11-16T23:01:20.133Z,96602.78
2022-11-16T23:04:28.418Z,96598.19
2022-11-16T23:07:47.753Z,96607.41
2022-11-16T23:11:18.481Z,96603.09
2022-11-16T23:14:49.471Z,96601.34
2022-11-16T23:18:18.923Z,96602.50
2022-11-16T23:21:41.887Z,96597.28
2022-11-16T23:25:06.446Z,96595.16
2022-11-16T23:28:16.679Z,96599.06
2022-11-16T23:31:24.330Z,96599.81
2022-11-16T23:34:32.504Z,96594.09
2022-11-16T23:38:05.592Z,96556.63
2022-11-16T23:41:35.123Z,96587.41
2022-11-16T23:44:41.147Z,96580.94
2022-11-16T23:47:53.478Z,96579.03
2022-11-16T23:51:02.749Z,96577.97
2022-11-16T23:54:08.651Z,96576.84
2022-11-16T23:57:22.768Z,96571.06
